Time;durP1;ratioP1;P1;durP2;ratioP2;P2;SDS_P1;SDS_P2;PMS_P1;PMS_P2;Temp;Humidity;BMP_temperature;BMP_pressure;BME280_temperature;BME280_humidity;BME280_pressure;Samples;Min_cycle;Max_cycle;Signal;HPM_P1;HPM_P2
2022/03/18 00:01:02;;;;;;;14.00;6.10;;;3.90;99.90;;;;;;5134582;27;20035;-73
2022/03/18 00:03:28;;;;;;;21.85;6.85;;;4.90;99.90;;;;;;5117646;27;20394;-73
2022/03/18 00:05:53;;;;;;;16.05;6.60;;;4.30;99.90;;;;;;5117352;27;20047;-73
2022/03/18 00:08:19;;;;;;;14.63;5.88;;;4.10;99.90;;;;;;5117394;27;20051;-75
2022/03/18 00:10:45;;;;;;;19.42;6.80;;;4.20;99.90;;;;;;5133433;27;20042;-73
2022/03/18 00:13:11;;;;;;;17.67;6.20;;;4.10;99.90;;;;;;5100101;27;20455;-73
2022/03/18 00:15:37;;;;;;;12.82;5.63;;;4.00;99.90;;;;;;5134406;27;20455;-74
2022/03/18 00:18:02;;;;;;;16.52;5.10;;;4.20;99.90;;;;;;5117012;27;20051;-74
2022/03/18 00:20:28;;;;;;;12.18;5.50;;;4.00;99.90;;;;;;5134059;27;20397;-73
2022/03/18 00:22:54;;;;;;;14.43;6.03;;;4.80;99.90;;;;;;5133952;27;20055;-74
2022/03/18 00:25:20;;;;;;;15.38;5.32;;;4.20;99.90;;;;;;5117019;27;20043;-74
2022/03/18 00:27:46;;;;;;;14.32;4.65;;;4.10;99.90;;;;;;5134244;27;20374;-73
2022/03/18 00:30:14;;;;;;;14.63;5.68;;;4.70;99.90;;;;;;5133900;27;20042;-73
2022/03/18 00:32:41;;;;;;;16.00;5.47;;;4.10;99.90;;;;;;5134218;27;20130;-73
2022/03/18 00:35:08;;;;;;;15.93;5.85;;;4.10;99.90;;;;;;5134098;27;20043;-74
2022/03/18 00:37:34;;;;;;;19.17;5.97;;;4.00;99.90;;;;;;5133899;27;20075;-73
2022/03/18 00:40:01;;;;;;;16.90;6.03;;;3.90;99.90;;;;;;5116873;27;20066;-73
2022/03/18 00:42:26;;;;;;;19.30;7.38;;;4.50;99.90;;;;;;5116972;27;20039;-74
2022/03/18 00:44:52;;;;;;;19.35;8.10;;;4.00;99.90;;;;;;5133924;27;20122;-73
2022/03/18 00:52:47;;;;;;;17.38;7.95;;;4.20;99.90;;;;;;5133328;27;20054;-73
2022/03/18 00:55:13;;;;;;;21.45;8.65;;;4.40;99.90;;;;;;5133270;27;20557;-73
2022/03/18 00:57:38;;;;;;;21.15;8.80;;;4.20;99.90;;;;;;5133182;27;20084;-73
2022/03/18 01:00:05;;;;;;;23.45;9.30;;;4.50;99.90;;;;;;5099399;27;20043;-73
2022/03/18 01:02:31;;;;;;;19.75;8.85;;;4.20;99.90;;;;;;5116381;27;20053;-73
2022/03/18 01:04:57;;;;;;;21.75;9.80;;;4.50;99.90;;;;;;5133301;27;20122;-73
2022/03/18 01:07:22;;;;;;;18.08;8.55;;;5.40;99.90;;;;;;5099293;27;20074;-73
2022/03/18 01:09:48;;;;;;;24.63;9.77;;;4.40;99.90;;;;;;5133112;27;20043;-73
2022/03/18 01:12:14;;;;;;;20.25;9.30;;;4.10;99.90;;;;;;5116036;28;20043;-73
2022/03/18 01:14:39;;;;;;;28.10;10.18;;;4.40;99.90;;;;;;5115933;27;20387;-73
2022/03/18 01:17:05;;;;;;;23.63;9.50;;;4.20;99.90;;;;;;5115863;27;20046;-73
2022/03/18 01:19:31;;;;;;;22.98;10.00;;;4.40;99.90;;;;;;5133224;27;20039;-73
2022/03/18 01:21:56;;;;;;;18.17;9.00;;;4.40;99.90;;;;;;5132767;27;20127;-73
2022/03/18 01:24:22;;;;;;;17.75;8.75;;;4.50;99.90;;;;;;5132820;27;20200;-73
2022/03/18 01:26:48;;;;;;;18.88;8.75;;;4.50;99.90;;;;;;5099258;27;20118;-73
2022/03/18 01:29:13;;;;;;;22.15;8.52;;;4.50;99.90;;;;;;5115760;27;20130;-73
2022/03/18 01:31:39;;;;;;;16.23;8.38;;;4.50;99.90;;;;;;5132698;27;20042;-73
2022/03/18 01:34:05;;;;;;;20.75;8.43;;;4.70;99.90;;;;;;5132873;27;20066;-73
2022/03/18 01:36:30;;;;;;;17.95;8.05;;;4.60;99.90;;;;;;5115817;27;20035;-73
2022/03/18 01:38:56;;;;;;;20.02;8.93;;;4.90;99.90;;;;;;5132841;27;20444;-73
2022/03/18 01:41:22;;;;;;;21.60;10.02;;;4.40;99.90;;;;;;5132786;27;20043;-73
2022/03/18 01:43:48;;;;;;;23.85;8.77;;;4.30;99.90;;;;;;5132729;27;20595;-73
2022/03/18 01:46:16;;;;;;;19.40;8.40;;;4.30;99.90;;;;;;5132728;27;20039;-73
2022/03/18 01:48:42;;;;;;;17.73;8.20;;;4.90;99.90;;;;;;5115878;27;20398;-74
2022/03/18 01:51:08;;;;;;;17.95;7.82;;;4.30;99.90;;;;;;5132739;27;20047;-73
2022/03/18 01:53:36;;;;;;;16.83;8.70;;;4.30;99.90;;;;;;5132477;27;20042;-73
2022/03/18 01:56:02;;;;;;;22.05;8.60;;;4.20;99.90;;;;;;5132441;27;20156;-73
2022/03/18 01:58:28;;;;;;;16.23;7.55;;;4.00;99.90;;;;;;5132300;27;20066;-73
2022/03/18 02:00:53;;;;;;;15.25;7.40;;;4.10;99.90;;;;;;5132403;27;20039;-73
2022/03/18 02:03:20;;;;;;;20.17;7.38;;;4.30;99.90;;;;;;5098507;28;20031;-73
2022/03/18 02:05:46;;;;;;;18.88;8.00;;;4.20;99.90;;;;;;5132643;28;20379;-73
2022/03/18 02:08:15;;;;;;;19.20;7.70;;;4.60;99.90;;;;;;5132520;28;20039;-73
2022/03/18 02:10:42;;;;;;;22.00;8.77;;;4.30;99.90;;;;;;5132514;28;20150;-73
2022/03/18 02:13:07;;;;;;;12.00;7.68;;;4.50;99.90;;;;;;5115125;28;20042;-73
2022/03/18 02:15:33;;;;;;;18.73;7.75;;;4.50;99.90;;;;;;5098066;28;20446;-73
2022/03/18 02:17:59;;;;;;;13.07;6.57;;;4.10;99.90;;;;;;5114953;28;20104;-73
2022/03/18 02:20:25;;;;;;;16.52;6.80;;;4.10;99.90;;;;;;5115276;28;20039;-73
2022/03/18 02:22:51;;;;;;;12.35;6.53;;;4.80;99.90;;;;;;5115145;28;20086;-73
2022/03/18 02:25:16;;;;;;;24.38;7.15;;;4.20;99.90;;;;;;5115506;28;20067;-73
2022/03/18 02:27:55;;;;;;;15.90;5.88;;;4.20;99.90;;;;;;5132292;28;20046;-73
2022/03/18 02:30:21;;;;;;;16.73;7.43;;;4.20;99.90;;;;;;5132365;28;20053;-73
2022/03/18 02:32:46;;;;;;;22.30;6.38;;;4.30;99.90;;;;;;5114904;28;20409;-73
2022/03/18 02:35:12;;;;;;;25.05;8.00;;;4.30;99.90;;;;;;5100748;27;20449;-73
2022/03/18 02:37:38;;;;;;;18.27;6.25;;;4.20;99.90;;;;;;5136155;27;20555;-73
2022/03/18 02:40:04;;;;;;;13.10;6.32;;;4.10;99.90;;;;;;5119044;27;20466;-73
2022/03/18 02:42:30;;;;;;;16.27;7.20;;;4.10;99.90;;;;;;5119013;27;20130;-73
2022/03/18 02:44:56;;;;;;;17.83;7.35;;;4.20;99.90;;;;;;5119415;27;20087;-73
2022/03/18 02:47:21;;;;;;;13.75;6.53;;;4.30;99.90;;;;;;5136294;27;20035;-73
2022/03/18 02:49:47;;;;;;;17.50;6.18;;;4.20;99.90;;;;;;5118873;27;20031;-71
2022/03/18 02:52:14;;;;;;;18.05;5.57;;;4.40;99.90;;;;;;5118690;27;20054;-72
2022/03/18 02:54:41;;;;;;;18.63;6.75;;;4.30;99.90;;;;;;5118939;27;20402;-72
2022/03/18 02:57:07;;;;;;;11.23;5.20;;;4.90;99.90;;;;;;5135492;27;20043;-72
2022/03/18 02:59:33;;;;;;;16.15;6.55;;;4.30;99.90;;;;;;5135775;27;20035;-72
2022/03/18 03:01:59;;;;;;;13.27;6.47;;;4.40;99.90;;;;;;5135948;27;20039;-72
2022/03/18 03:04:25;;;;;;;15.10;6.43;;;4.80;99.90;;;;;;5118727;27;20042;-72
2022/03/18 03:09:35;;;;;;;16.10;6.20;;;4.50;99.90;;;;;;5121341;27;20116;-72
2022/03/18 03:12:01;;;;;;;18.27;6.20;;;4.40;99.90;;;;;;5135729;27;20031;-72
2022/03/18 03:14:27;;;;;;;15.68;5.93;;;4.30;99.90;;;;;;5101397;27;20043;-72
2022/03/18 03:16:53;;;;;;;11.88;5.47;;;4.50;99.90;;;;;;5118160;27;20042;-72
2022/03/18 03:19:19;;;;;;;19.08;6.25;;;4.50;99.90;;;;;;5135174;27;20084;-72
2022/03/18 03:21:44;;;;;;;13.68;6.68;;;4.60;99.90;;;;;;5135128;27;20039;-72
2022/03/18 03:24:10;;;;;;;15.05;6.53;;;4.70;99.90;;;;;;5117945;27;20047;-72
2022/03/18 03:26:36;;;;;;;15.48;6.15;;;4.40;99.90;;;;;;5118333;27;20035;-72
2022/03/18 03:29:02;;;;;;;13.60;5.82;;;4.40;99.90;;;;;;5135028;27;20039;-72
2022/03/18 03:31:28;;;;;;;11.77;5.28;;;4.30;99.90;;;;;;5134943;27;20039;-72
2022/03/18 03:33:53;;;;;;;15.75;6.07;;;4.70;99.90;;;;;;5118089;27;20043;-72
2022/03/18 03:36:19;;;;;;;15.38;6.70;;;4.40;99.90;;;;;;5117834;27;20127;-72
2022/03/18 03:38:45;;;;;;;10.50;5.78;;;4.50;99.90;;;;;;5134713;27;20039;-72
2022/03/18 03:41:11;;;;;;;18.40;6.15;;;4.90;99.90;;;;;;5134767;27;20035;-72
2022/03/18 03:43:38;;;;;;;14.68;5.57;;;4.50;99.90;;;;;;5117928;27;20035;-72
2022/03/18 03:46:04;;;;;;;19.83;6.60;;;4.20;99.90;;;;;;5100947;27;20035;-72
2022/03/18 03:48:30;;;;;;;11.25;6.25;;;4.30;99.90;;;;;;5134903;27;20042;-72
2022/03/18 03:50:56;;;;;;;11.55;5.70;;;4.30;99.90;;;;;;5134517;27;20050;-72
2022/03/18 03:53:22;;;;;;;9.68;5.55;;;4.40;99.90;;;;;;5117363;27;20039;-72
2022/03/18 03:55:48;;;;;;;13.07;6.03;;;4.40;99.90;;;;;;5134515;27;20041;-72
2022/03/18 03:58:14;;;;;;;13.43;5.53;;;4.40;99.90;;;;;;5134376;27;20046;-72
2022/03/18 04:00:40;;;;;;;13.63;6.15;;;4.30;99.90;;;;;;5134471;27;20406;-72
2022/03/18 04:03:06;;;;;;;16.42;6.68;;;4.50;99.90;;;;;;5117291;27;20046;-73
2022/03/18 04:05:33;;;;;;;12.60;6.80;;;4.30;99.90;;;;;;5117555;27;20034;-72
2022/03/18 04:08:00;;;;;;;15.15;6.28;;;4.50;99.90;;;;;;5134203;27;20038;-72
2022/03/18 04:10:26;;;;;;;16.33;6.15;;;4.10;99.90;;;;;;5117194;27;20409;-72
2022/03/18 04:12:52;;;;;;;12.48;6.32;;;4.00;99.90;;;;;;5116953;27;20050;-72
2022/03/18 04:15:18;;;;;;;14.68;5.80;;;4.70;99.90;;;;;;5117180;27;20043;-72
2022/03/18 04:17:49;;;;;;;13.18;6.88;;;4.30;99.90;;;;;;5133985;27;20073;-72
2022/03/18 04:20:21;;;;;;;13.30;6.18;;;4.10;99.90;;;;;;5134091;27;20039;-72
2022/03/18 04:22:47;;;;;;;14.35;6.05;;;4.00;99.90;;;;;;5119243;27;20079;-72
2022/03/18 04:25:13;;;;;;;12.30;6.25;;;4.10;99.90;;;;;;5137376;27;20046;-72
2022/03/18 04:27:39;;;;;;;14.57;6.93;;;4.10;99.90;;;;;;5137221;27;20362;-72
2022/03/18 04:30:08;;;;;;;13.63;6.35;;;4.40;99.90;;;;;;5120179;27;20046;-72
2022/03/18 04:32:33;;;;;;;15.02;6.03;;;4.00;99.90;;;;;;5137477;27;20504;-72
2022/03/18 04:34:59;;;;;;;14.88;6.53;;;4.80;99.90;;;;;;5120331;27;20051;-72
2022/03/18 04:37:25;;;;;;;16.05;6.63;;;3.90;99.90;;;;;;5119979;27;20043;-72
2022/03/18 04:39:51;;;;;;;17.50;6.25;;;4.00;99.90;;;;;;5119881;27;20382;-72
2022/03/18 04:42:17;;;;;;;11.73;6.13;;;4.10;99.90;;;;;;5137128;27;20109;-72
2022/03/18 04:44:43;;;;;;;19.02;6.90;;;4.20;99.90;;;;;;5086350;27;20038;-72
2022/03/18 04:47:10;;;;;;;12.75;6.50;;;4.30;99.90;;;;;;5136950;27;20046;-72
2022/03/18 04:49:36;;;;;;;13.43;6.68;;;4.00;99.90;;;;;;5137154;27;20417;-72
2022/03/18 04:52:02;;;;;;;14.30;6.15;;;4.10;99.90;;;;;;5136795;27;20046;-72
2022/03/18 04:54:27;;;;;;;13.60;6.93;;;3.90;99.90;;;;;;5102740;27;20042;-72
2022/03/18 04:59:37;;;;;;;15.60;7.88;;;3.90;99.90;;;;;;5122407;27;20554;-72
2022/03/18 05:02:03;;;;;;;16.23;6.93;;;4.10;99.90;;;;;;5119517;27;20050;-72
2022/03/18 05:04:28;;;;;;;15.60;7.03;;;3.90;99.90;;;;;;5136827;27;20485;-72
2022/03/18 05:06:54;;;;;;;13.65;7.20;;;3.90;99.90;;;;;;5102710;27;20049;-72
2022/03/18 05:09:20;;;;;;;14.68;7.32;;;4.00;99.90;;;;;;5136436;27;20587;-72
2022/03/18 05:11:45;;;;;;;16.80;7.32;;;4.00;99.90;;;;;;5136333;27;20038;-72
2022/03/18 05:14:11;;;;;;;17.45;7.57;;;3.80;99.90;;;;;;5102346;27;20042;-72
2022/03/18 05:16:37;;;;;;;16.42;7.65;;;4.00;99.90;;;;;;5119269;27;20046;-73
2022/03/18 05:19:03;;;;;;;18.40;8.77;;;3.90;99.90;;;;;;5136055;27;20051;-72
2022/03/18 05:21:28;;;;;;;19.60;8.18;;;3.90;99.90;;;;;;5102216;27;20528;-72
2022/03/18 05:23:54;;;;;;;18.50;8.43;;;4.20;99.90;;;;;;5136010;27;20391;-72
2022/03/18 05:26:20;;;;;;;14.10;7.70;;;4.00;99.90;;;;;;5119361;27;20091;-72
2022/03/18 05:28:46;;;;;;;13.82;8.68;;;3.80;99.90;;;;;;5135990;27;20038;-72
2022/03/18 05:31:12;;;;;;;18.38;8.52;;;4.40;99.90;;;;;;5119280;27;20045;-72
2022/03/18 05:33:38;;;;;;;20.52;9.10;;;4.00;99.90;;;;;;5136333;27;20047;-72
2022/03/18 05:36:04;;;;;;;14.57;9.02;;;4.10;99.90;;;;;;5118853;27;20047;-72
2022/03/18 05:38:30;;;;;;;19.25;9.77;;;3.70;99.90;;;;;;5118691;27;20050;-72
2022/03/18 05:40:56;;;;;;;18.30;9.60;;;3.80;99.90;;;;;;5118910;27;20037;-72
2022/03/18 05:43:21;;;;;;;17.13;9.50;;;3.80;99.90;;;;;;5135993;27;20035;-72
2022/03/18 05:45:47;;;;;;;15.18;9.80;;;4.10;99.90;;;;;;5136139;27;20363;-72
2022/03/18 05:48:13;;;;;;;18.05;10.00;;;3.90;99.90;;;;;;5102039;27;20043;-72
2022/03/18 05:50:39;;;;;;;16.77;9.88;;;3.70;99.90;;;;;;5135899;27;20515;-72
2022/03/18 05:53:05;;;;;;;19.60;10.50;;;4.50;99.90;;;;;;5135465;27;20050;-72
2022/03/18 05:58:18;;;;;;;20.92;11.27;;;3.80;99.90;;;;;;5135588;27;20183;-72
2022/03/18 06:00:45;;;;;;;20.08;10.95;;;3.90;99.90;;;;;;5118876;27;20043;-73
2022/03/18 06:03:12;;;;;;;22.77;12.05;;;3.80;99.90;;;;;;5118796;27;20127;-73
2022/03/18 06:05:39;;;;;;;24.90;11.60;;;4.40;99.90;;;;;;5135678;27;20043;-73
2022/03/18 06:13:33;;;;;;;20.92;11.55;;;3.90;99.90;;;;;;5139880;27;20049;-73
2022/03/18 06:15:59;;;;;;;19.48;11.55;;;3.70;99.90;;;;;;5140118;27;20409;-70
2022/03/18 06:18:25;;;;;;;23.58;12.23;;;3.50;99.90;;;;;;5139613;27;20046;-72
2022/03/18 06:20:51;;;;;;;20.33;12.52;;;3.70;99.90;;;;;;5139775;27;20402;-73
2022/03/18 06:23:17;;;;;;;21.48;12.70;;;4.00;99.90;;;;;;5139702;27;20120;-72
2022/03/18 06:25:43;;;;;;;20.40;11.90;;;4.60;99.90;;;;;;5122528;27;20038;-73
2022/03/18 06:28:09;;;;;;;24.23;12.85;;;4.60;99.90;;;;;;5139690;27;20068;-70
2022/03/18 06:30:35;;;;;;;24.38;12.05;;;3.90;99.90;;;;;;5105812;27;20046;-72
2022/03/18 06:33:01;;;;;;;21.60;11.98;;;4.40;99.90;;;;;;5139872;27;20042;-72
2022/03/18 06:35:26;;;;;;;24.27;13.18;;;4.10;99.90;;;;;;5139705;27;20049;-73
2022/03/18 06:37:52;;;;;;;18.77;12.40;;;4.20;99.90;;;;;;5122759;27;20243;-74
2022/03/18 06:40:18;;;;;;;24.00;12.50;;;4.20;99.90;;;;;;5139908;27;20049;-73
2022/03/18 06:42:44;;;;;;;22.35;13.55;;;4.10;99.90;;;;;;5122715;27;20038;-74
2022/03/18 06:45:10;;;;;;;23.98;13.65;;;4.40;99.90;;;;;;5105752;27;20035;-74
2022/03/18 06:47:35;;;;;;;23.17;13.27;;;4.40;99.90;;;;;;5139502;27;20121;-73
2022/03/18 06:50:01;;;;;;;16.67;12.35;;;4.40;99.90;;;;;;5105627;27;20435;-74
2022/03/18 06:52:27;;;;;;;20.38;13.23;;;5.20;99.90;;;;;;5139140;27;20035;-73
2022/03/18 06:54:53;;;;;;;24.67;14.93;;;4.70;99.90;;;;;;5139562;27;20378;-74
2022/03/18 06:57:19;;;;;;;19.40;12.07;;;4.90;99.90;;;;;;5122287;27;20035;-74
2022/03/18 06:59:45;;;;;;;19.02;12.68;;;5.30;99.90;;;;;;5139676;27;20039;-74
2022/03/18 07:02:13;;;;;;;19.75;11.70;;;4.80;99.90;;;;;;5122348;27;20401;-74
2022/03/18 07:04:39;;;;;;;20.95;12.57;;;5.20;99.90;;;;;;5105330;27;20041;-73
2022/03/18 07:07:06;;;;;;;20.85;13.10;;;5.30;99.90;;;;;;5105272;27;20042;-73
2022/03/18 07:09:32;;;;;;;27.60;14.68;;;5.40;99.90;;;;;;5139054;27;20039;-73
2022/03/18 07:11:57;;;;;;;20.90;13.38;;;5.30;99.90;;;;;;5121992;27;20072;-73
2022/03/18 07:14:23;;;;;;;29.00;15.23;;;5.80;99.90;;;;;;5139411;27;20092;-73
2022/03/18 07:19:33;;;;;;;24.65;13.40;;;5.60;99.90;;;;;;5138290;27;20061;-74
2022/03/18 07:21:59;;;;;;;22.00;13.80;;;5.60;99.90;;;;;;5121574;27;20473;-74
2022/03/18 07:24:24;;;;;;;19.75;13.77;;;6.30;99.90;;;;;;5134988;27;20055;-73
2022/03/18 07:26:50;;;;;;;19.63;14.02;;;5.90;99.90;;;;;;5118295;27;20046;-73
2022/03/18 07:29:16;;;;;;;18.13;13.63;;;5.80;99.90;;;;;;5118244;27;20039;-73
2022/03/18 07:31:42;;;;;;;23.73;13.27;;;6.10;99.90;;;;;;5134818;27;20046;-73
2022/03/18 07:34:07;;;;;;;20.23;13.32;;;6.20;99.90;;;;;;5117795;27;20039;-74
2022/03/18 07:36:33;;;;;;;22.90;13.15;;;6.40;99.90;;;;;;5134972;27;20130;-75
2022/03/18 07:38:59;;;;;;;20.65;12.77;;;6.40;99.90;;;;;;5117710;27;20042;-77
2022/03/18 07:41:25;;;;;;;18.67;13.07;;;7.10;99.90;;;;;;5117664;27;20038;-75
2022/03/18 07:43:50;;;;;;;17.63;13.18;;;7.20;99.90;;;;;;5117973;27;20191;-74
2022/03/18 07:46:17;;;;;;;21.90;13.32;;;6.50;99.90;;;;;;5101010;27;20046;-74
2022/03/18 07:48:44;;;;;;;21.45;13.35;;;6.80;99.90;;;;;;5117499;27;20077;-74
2022/03/18 07:51:11;;;;;;;23.40;13.93;;;7.10;99.90;;;;;;5117813;27;20047;-74
2022/03/18 07:53:37;;;;;;;20.83;13.23;;;7.10;99.90;;;;;;5100660;27;20043;-75
2022/03/18 07:56:04;;;;;;;19.13;13.35;;;7.30;99.90;;;;;;5100677;27;20091;-74
2022/03/18 07:58:30;;;;;;;20.85;12.65;;;7.40;99.90;;;;;;5134612;27;20045;-74
2022/03/18 08:00:56;;;;;;;19.92;12.93;;;7.50;99.90;;;;;;5117690;27;20046;-74
2022/03/18 08:03:22;;;;;;;23.77;12.68;;;7.80;99.90;;;;;;5117699;27;20036;-74
2022/03/18 08:05:48;;;;;;;27.73;13.30;;;;;;;;;;5134409;27;20035;-74
2022/03/18 08:08:14;;;;;;;23.08;12.75;;;;;;;;;;5134669;27;20039;-74
2022/03/18 08:10:40;;;;;;;20.80;13.05;;;;;;;;;;5134585;27;20039;-74
2022/03/18 08:13:06;;;;;;;21.20;12.90;;;8.00;99.90;;;;;;5134485;27;20053;-74
2022/03/18 08:15:32;;;;;;;20.35;13.50;;;8.10;99.90;;;;;;5117411;27;20043;-74
2022/03/18 08:17:58;;;;;;;19.90;12.45;;;8.20;99.90;;;;;;5133991;27;20459;-75
2022/03/18 08:20:25;;;;;;;20.77;13.23;;;;;;;;;;5134151;27;20045;-74
2022/03/18 08:22:51;;;;;;;23.13;11.98;;;8.60;99.90;;;;;;5135043;27;20105;-74
2022/03/18 08:25:18;;;;;;;19.38;12.07;;;;;;;;;;5137549;27;20043;-74
2022/03/18 08:27:43;;;;;;;26.83;14.75;;;8.50;99.90;;;;;;5137461;27;20043;-74
2022/03/18 08:30:11;;;;;;;20.60;12.02;;;8.60;99.90;;;;;;5137425;27;20043;-74
2022/03/18 08:32:37;;;;;;;21.50;12.43;;;8.80;99.90;;;;;;5119485;27;20101;-74
2022/03/18 08:35:05;;;;;;;17.77;12.15;;;8.80;99.90;;;;;;5120342;27;20054;-74
2022/03/18 08:40:15;;;;;;;18.58;11.50;;;9.10;99.90;;;;;;5137147;27;20054;-74
2022/03/18 08:42:41;;;;;;;21.48;11.65;;;9.30;99.90;;;;;;5137008;27;20034;-74
2022/03/18 08:45:08;;;;;;;20.52;11.90;;;9.50;99.90;;;;;;5120190;27;20442;-74
2022/03/18 08:47:34;;;;;;;20.92;11.65;;;9.60;99.90;;;;;;5120263;27;20038;-74
2022/03/18 08:50:00;;;;;;;20.33;11.75;;;9.80;99.90;;;;;;5120163;27;20418;-74
2022/03/18 08:52:26;;;;;;;19.48;11.60;;;9.90;99.90;;;;;;5120233;27;20114;-74
2022/03/18 08:54:51;;;;;;;23.48;12.70;;;10.00;99.90;;;;;;5119946;27;20031;-74
2022/03/18 08:57:17;;;;;;;18.55;12.02;;;10.10;99.90;;;;;;5137004;27;20555;-75
2022/03/18 08:59:43;;;;;;;20.48;11.80;;;10.10;99.90;;;;;;5119703;27;20042;-74
2022/03/18 09:02:09;;;;;;;22.85;11.70;;;10.30;99.90;;;;;;5136943;27;20117;-74
2022/03/18 09:04:35;;;;;;;25.98;11.75;;;10.40;99.90;;;;;;5102788;27;20138;-73
2022/03/18 09:07:01;;;;;;;22.52;12.05;;;10.40;99.90;;;;;;5137070;27;20038;-73
2022/03/18 09:09:26;;;;;;;21.48;12.43;;;10.60;99.90;;;;;;5136939;27;20039;-73
2022/03/18 09:11:53;;;;;;;25.23;12.48;;;10.60;99.90;;;;;;5119770;27;20097;-73
2022/03/18 09:14:18;;;;;;;23.80;12.27;;;10.70;99.90;;;;;;5119508;27;20092;-74
2022/03/18 09:16:44;;;;;;;23.55;13.43;;;10.80;99.90;;;;;;5102495;27;20401;-73
2022/03/18 09:19:10;;;;;;;22.67;11.77;;;10.90;99.90;;;;;;5119210;27;20039;-74
2022/03/18 09:21:36;;;;;;;20.30;11.75;;;11.00;99.90;;;;;;5119837;27;20046;-72
2022/03/18 09:24:03;;;;;;;20.35;10.68;;;11.00;99.90;;;;;;5132939;27;20112;-72
2022/03/18 09:26:29;;;;;;;25.92;11.82;;;11.10;99.90;;;;;;5116233;27;20379;-73
2022/03/18 09:28:55;;;;;;;19.95;11.38;;;11.20;99.90;;;;;;5099011;27;20092;-74
2022/03/18 09:31:21;;;;;;;25.65;12.65;;;11.30;99.90;;;;;;5132892;27;20495;-73
2022/03/18 09:33:47;;;;;;;21.30;11.38;;;11.30;99.90;;;;;;5115777;27;20049;-74
2022/03/18 09:36:17;;;;;;;16.95;11.30;;;11.50;99.90;;;;;;5132868;27;20058;-74
2022/03/18 09:38:43;;;;;;;19.55;10.77;;;11.60;99.90;;;;;;5115585;28;20047;-74
2022/03/18 09:41:09;;;;;;;21.35;10.07;;;11.60;99.90;;;;;;5099119;27;20042;-74
2022/03/18 09:43:39;;;;;;;19.48;10.40;;;;;;;;;;5115482;27;20446;-74
2022/03/18 09:46:09;;;;;;;19.35;10.57;;;11.60;99.90;;;;;;5132606;27;20042;-75
2022/03/18 09:48:36;;;;;;;22.83;11.05;;;11.70;99.90;;;;;;5133016;27;20386;-74
2022/03/18 09:51:02;;;;;;;26.63;11.40;;;11.70;99.90;;;;;;5115728;27;20106;-74
2022/03/18 09:53:28;;;;;;;17.45;10.60;;;12.20;99.90;;;;;;5115518;28;20035;-74
2022/03/18 09:55:53;;;;;;;19.40;10.73;;;12.10;99.90;;;;;;5115750;28;20100;-75
2022/03/18 09:58:21;;;;;;;17.63;10.30;;;12.00;99.90;;;;;;5115259;27;20039;-75
2022/03/18 10:00:48;;;;;;;16.95;10.23;;;12.10;99.90;;;;;;5132275;27;20042;-75
2022/03/18 10:03:19;;;;;;;19.40;10.85;;;12.20;99.90;;;;;;5081560;27;20043;-75
2022/03/18 10:05:53;;;;;;;20.27;11.20;;;12.30;99.90;;;;;;5132547;27;20095;-76
2022/03/18 10:08:21;;;;;;;20.08;10.82;;;12.50;99.90;;;;;;5115484;28;20043;-76
2022/03/18 10:10:48;;;;;;;19.20;10.68;;;12.60;99.90;;;;;;5132571;28;20039;-76
2022/03/18 10:13:15;;;;;;;20.52;11.15;;;12.60;99.90;;;;;;5115455;28;20043;-76
2022/03/18 10:15:41;;;;;;;17.00;9.40;;;12.70;99.90;;;;;;5115928;28;20047;-75
2022/03/18 10:18:11;;;;;;;18.83;10.07;;;12.70;99.90;;;;;;5132895;28;20042;-75
2022/03/18 10:20:40;;;;;;;18.00;11.07;;;12.80;99.90;;;;;;5116312;28;20042;-75
2022/03/18 10:23:15;;;;;;;18.58;10.68;;;12.80;99.90;;;;;;5118739;27;20107;-75
2022/03/18 10:25:42;;;;;;;20.80;10.30;;;12.90;99.90;;;;;;5136282;27;20061;-75
2022/03/18 10:28:09;;;;;;;18.05;10.52;;;13.30;99.90;;;;;;5136143;27;20510;-74
2022/03/18 10:30:36;;;;;;;19.23;11.88;;;13.10;99.90;;;;;;5136302;27;20038;-74
2022/03/18 10:33:03;;;;;;;16.73;10.10;;;13.20;99.90;;;;;;5118801;27;20051;-74
2022/03/18 10:38:35;;;;;;;23.58;11.00;;;13.40;99.90;;;;;;5136196;27;20074;-75
2022/03/18 10:41:23;;;;;;;19.13;10.63;;;13.50;99.90;;;;;;5136131;27;20031;-75
2022/03/18 10:43:55;;;;;;;20.80;11.57;;;13.40;99.90;;;;;;5135799;27;20043;-74
2022/03/18 10:46:22;;;;;;;19.15;9.63;;;13.60;99.90;;;;;;5118559;27;20035;-76
2022/03/18 10:49:05;;;;;;;19.90;10.98;;;13.70;99.90;;;;;;5136155;27;20123;-76
2022/03/18 10:51:31;;;;;;;16.15;9.18;;;13.70;99.90;;;;;;5136258;27;20034;-76
2022/03/18 10:53:57;;;;;;;19.08;10.45;;;13.70;99.90;;;;;;5119230;27;20098;-75
2022/03/18 10:56:24;;;;;;;22.70;11.00;;;13.70;99.90;;;;;;5138865;27;20042;-75
2022/03/18 10:58:50;;;;;;;20.15;10.05;;;13.80;99.90;;;;;;5139784;27;20034;-74
2022/03/18 11:01:16;;;;;;;20.98;10.30;;;13.90;99.90;;;;;;5139727;27;20058;-74
2022/03/18 11:03:45;;;;;;;19.00;10.02;;;13.90;99.90;;;;;;5139072;27;20042;-74
2022/03/18 11:06:11;;;;;;;18.65;8.77;;;14.00;99.90;;;;;;5138987;27;20405;-73
2022/03/18 11:08:48;;;;;;;17.02;10.18;;;14.10;99.90;;;;;;5139113;27;20046;-75
2022/03/18 11:11:15;;;;;;;17.08;9.95;;;14.00;99.90;;;;;;5139616;27;20047;-75
2022/03/18 11:14:01;;;;;;;16.52;9.95;;;14.10;99.90;;;;;;5121739;27;20050;-75
2022/03/18 11:16:30;;;;;;;23.00;9.15;;;14.50;99.90;;;;;;5139207;27;20078;-74
2022/03/18 11:18:57;;;;;;;18.35;7.50;;;;;;;;;;5139805;27;20042;-74
2022/03/18 11:21:35;;;;;;;22.30;9.82;;;14.60;99.90;;;;;;5139476;27;20401;-73
2022/03/18 11:24:03;;;;;;;16.88;8.32;;;14.70;99.90;;;;;;5138864;27;20089;-73
2022/03/18 11:26:31;;;;;;;16.88;7.88;;;14.80;99.90;;;;;;5138862;27;20047;-73
2022/03/18 11:29:07;;;;;;;14.32;6.93;;;14.70;99.90;;;;;;5138581;27;20387;-72
2022/03/18 11:31:33;;;;;;;16.33;7.93;;;14.80;99.90;;;;;;5121544;27;20089;-73
2022/03/18 11:34:14;;;;;;;13.95;7.63;;;14.90;99.90;;;;;;5122047;27;20077;-74
2022/03/18 11:36:48;;;;;;;12.30;7.95;;;15.00;99.90;;;;;;5138633;27;20074;-73
2022/03/18 11:39:21;;;;;;;19.30;7.97;;;15.10;99.90;;;;;;5138502;27;20047;-75
2022/03/18 11:41:50;;;;;;;20.15;8.73;;;15.30;99.90;;;;;;5138327;27;20035;-72
2022/03/18 11:44:34;;;;;;;12.73;7.53;;;15.40;99.90;;;;;;5138806;27;20043;-80
2022/03/18 11:47:18;;;;;;;12.80;7.10;;;15.40;99.90;;;;;;5139122;27;20099;-79
2022/03/18 11:49:44;;;;;;;14.88;6.57;;;15.60;99.90;;;;;;5138797;27;20053;-79
2022/03/18 11:52:10;;;;;;;13.55;6.93;;;15.50;99.90;;;;;;5138464;27;20042;-80
2022/03/18 11:54:50;;;;;;;16.30;7.38;;;15.60;99.90;;;;;;5138430;27;20035;-79
2022/03/18 11:57:45;;;;;;;18.63;7.60;;;15.80;99.90;;;;;;5138558;27;20129;-81
2022/03/18 12:00:33;;;;;;;14.65;7.00;;;15.80;99.90;;;;;;5127063;27;20050;-76
2022/03/18 12:03:04;;;;;;;18.38;7.60;;;15.90;99.90;;;;;;5138293;27;20106;-77
2022/03/18 12:05:31;;;;;;;11.52;6.57;;;16.00;99.90;;;;;;5122123;27;20511;-72
2022/03/18 12:07:59;;;;;;;12.70;6.35;;;16.10;99.90;;;;;;5136709;27;20091;-78
2022/03/18 12:10:45;;;;;;;12.10;6.32;;;16.30;99.90;;;;;;5138346;27;20486;-75
2022/03/18 12:13:11;;;;;;;9.68;5.68;;;16.50;99.90;;;;;;5137738;27;20039;-71
2022/03/18 12:15:39;;;;;;;12.85;6.10;;;16.50;99.90;;;;;;5120808;27;20031;-74
2022/03/18 12:18:04;;;;;;;14.00;6.60;;;16.70;99.90;;;;;;5120656;27;20069;-75
2022/03/18 12:20:36;;;;;;;12.85;5.75;;;17.10;99.90;;;;;;5138015;27;20034;-75
2022/03/18 12:23:06;;;;;;;11.20;5.47;;;17.20;99.90;;;;;;5120642;27;20121;-75
2022/03/18 12:25:32;;;;;;;12.88;5.38;;;17.40;99.90;;;;;;5137713;27;20039;-75
2022/03/18 12:27:57;;;;;;;13.57;5.55;;;17.50;99.90;;;;;;5137878;27;20042;-75
2022/03/18 12:30:26;;;;;;;12.43;5.65;;;17.70;99.90;;;;;;5120782;27;20035;-75
2022/03/18 12:32:54;;;;;;;9.68;5.80;;;18.10;99.90;;;;;;5137715;27;20046;-75
2022/03/18 12:35:38;;;;;;;15.48;6.38;;;18.20;99.90;;;;;;5137920;27;20501;-75
2022/03/18 12:38:18;;;;;;;12.52;5.30;;;18.40;99.90;;;;;;5137514;27;20047;-75
2022/03/18 12:41:06;;;;;;;13.25;5.28;;;18.70;99.90;;;;;;5137369;27;20090;-75
2022/03/18 12:43:32;;;;;;;10.80;4.95;;;18.90;99.90;;;;;;5137616;27;20031;-75
2022/03/18 12:45:58;;;;;;;15.48;6.00;;;19.30;99.90;;;;;;5120521;27;20046;-75
2022/03/18 12:48:24;;;;;;;17.75;5.68;;;19.40;99.90;;;;;;5137116;27;20038;-76
2022/03/18 12:50:52;;;;;;;11.27;5.45;;;19.40;99.90;;;;;;5137358;27;20110;-76
2022/03/18 12:53:25;;;;;;;8.38;5.40;;;19.30;99.90;;;;;;5137386;27;20080;-75
2022/03/18 12:55:53;;;;;;;10.98;4.43;;;18.90;99.90;;;;;;5137059;27;20034;-75
2022/03/18 12:58:20;;;;;;;12.32;4.97;;;18.50;99.90;;;;;;5119721;27;20061;-76
2022/03/18 13:00:51;;;;;;;11.90;4.63;;;18.00;99.90;;;;;;5136764;27;20074;-74
2022/03/18 13:03:23;;;;;;;12.15;4.40;;;18.00;99.90;;;;;;5119958;27;20606;-77
2022/03/18 13:05:52;;;;;;;13.52;4.80;;;18.20;99.90;;;;;;5136639;27;20070;-75
2022/03/18 13:08:19;;;;;;;14.05;4.95;;;18.40;99.90;;;;;;5119665;27;20042;-74